sensor_id;sensor_type;location;lat;lon;timestamp;pressure;altitude;pressure_sealevel;temperature;humidity
12624;BME280;6377;42.836;23.998;2023-02-07T00:00:09;97103.16;;;-3.18;100.00
12624;BME280;6377;42.836;23.998;2023-02-07T00:02:41;97090.25;;;-3.19;100.00
12624;BME280;6377;42.836;23.998;2023-02-07T00:05:13;97107.03;;;-3.08;100.00
12624;BME280;6377;42.836;23.998;2023-02-07T00:07:43;97096.22;;;-3.17;100.00
12624;BME280;6377;42.836;23.998;2023-02-07T00:10:13;96993.53;;;-3.80;100.00
12624;BME280;6377;42.836;23.998;2023-02-07T00:12:41;97114.63;;;-3.03;100.00
12624;BME280;6377;42.836;23.998;2023-02-07T00:15:08;97112.88;;;-3.03;100.00
12624;BME280;6377;42.836;23.998;2023-02-07T00:17:48;97116.13;;;-2.98;100.00
12624;BME280;6377;42.836;23.998;2023-02-07T00:20:19;97095.72;;;-3.05;100.00
12624;BME280;6377;42.836;23.998;2023-02-07T00:22:46;97097.47;;;-3.06;100.00
12624;BME280;6377;42.836;23.998;2023-02-07T00:25:14;97115.16;;;-2.95;100.00
12624;BME280;6377;42.836;23.998;2023-02-07T00:27:41;97119.97;;;-2.86;100.00
12624;BME280;6377;42.836;23.998;2023-02-07T00:30:11;97124.31;;;-2.87;100.00
12624;BME280;6377;42.836;23.998;2023-02-07T00:32:41;97122.69;;;-2.89;100.00
12624;BME280;6377;42.836;23.998;2023-02-07T00:35:11;97030.94;;;-3.46;100.00
12624;BME280;6377;42.836;23.998;2023-02-07T00:37:40;97132.59;;;-2.78;100.00
12624;BME280;6377;42.836;23.998;2023-02-07T00:40:10;97136.84;;;-2.76;100.00
12624;BME280;6377;42.836;23.998;2023-02-07T00:42:37;97132.34;;;-2.72;100.00
12624;BME280;6377;42.836;23.998;2023-02-07T00:45:04;97135.84;;;-2.73;100.00
12624;BME280;6377;42.836;23.998;2023-02-07T00:47:32;97132.53;;;-2.77;100.00
12624;BME280;6377;42.836;23.998;2023-02-07T00:49:59;97132.59;;;-2.78;100.00
12624;BME280;6377;42.836;23.998;2023-02-07T00:52:26;97137.19;;;-3.07;100.00
12624;BME280;6377;42.836;23.998;2023-02-07T00:54:54;97131.28;;;-3.10;100.00
12624;BME280;6377;42.836;23.998;2023-02-07T00:57:22;97136.47;;;-3.10;100.00
12624;BME280;6377;42.836;23.998;2023-02-07T00:59:49;97107.28;;;-3.35;100.00
12624;BME280;6377;42.836;23.998;2023-02-07T01:02:19;97130.38;;;-3.31;100.00
12624;BME280;6377;42.836;23.998;2023-02-07T01:04:47;97050.41;;;-3.80;100.00
12624;BME280;6377;42.836;23.998;2023-02-07T01:07:14;97104.41;;;-3.50;100.00
12624;BME280;6377;42.836;23.998;2023-02-07T01:09:41;97095.06;;;-3.54;100.00
12624;BME280;6377;42.836;23.998;2023-02-07T01:12:10;97097.56;;;-3.74;100.00
12624;BME280;6377;42.836;23.998;2023-02-07T01:14:37;97089.50;;;-3.89;100.00
12624;BME280;6377;42.836;23.998;2023-02-07T01:17:04;97120.41;;;-3.63;100.00
12624;BME280;6377;42.836;23.998;2023-02-07T01:19:32;97096.94;;;-3.80;100.00
12624;BME280;6377;42.836;23.998;2023-02-07T01:21:59;97076.44;;;-4.08;100.00
12624;BME280;6377;42.836;23.998;2023-02-07T01:24:28;97092.31;;;-4.19;100.00
12624;BME280;6377;42.836;23.998;2023-02-07T01:26:56;97119.41;;;-3.82;100.00
12624;BME280;6377;42.836;23.998;2023-02-07T01:29:33;97109.31;;;-3.88;100.00
12624;BME280;6377;42.836;23.998;2023-02-07T01:32:00;97064.41;;;-4.09;100.00
12624;BME280;6377;42.836;23.998;2023-02-07T01:34:27;97089.97;;;-4.02;100.00
12624;BME280;6377;42.836;23.998;2023-02-07T01:36:55;97123.84;;;-3.63;100.00
12624;BME280;6377;42.836;23.998;2023-02-07T01:39:22;97112.50;;;-3.59;100.00
12624;BME280;6377;42.836;23.998;2023-02-07T01:41:49;97110.56;;;-3.54;100.00
12624;BME280;6377;42.836;23.998;2023-02-07T01:45:00;97115.66;;;-3.52;100.00
12624;BME280;6377;42.836;23.998;2023-02-07T01:47:30;97106.25;;;-3.53;100.00
12624;BME280;6377;42.836;23.998;2023-02-07T01:49:58;97122.44;;;-3.48;100.00
12624;BME280;6377;42.836;23.998;2023-02-07T01:52:29;97067.16;;;-3.67;100.00
12624;BME280;6377;42.836;23.998;2023-02-07T01:55:02;97099.22;;;-3.50;100.00
12624;BME280;6377;42.836;23.998;2023-02-07T01:57:30;97109.91;;;-3.37;100.00
12624;BME280;6377;42.836;23.998;2023-02-07T02:00:00;97109.91;;;-3.37;100.00
12624;BME280;6377;42.836;23.998;2023-02-07T02:02:31;97018.22;;;-3.95;100.00
12624;BME280;6377;42.836;23.998;2023-02-07T02:04:59;97114.28;;;-3.61;100.00
12624;BME280;6377;42.836;23.998;2023-02-07T02:07:28;97121.16;;;-3.83;100.00
12624;BME280;6377;42.836;23.998;2023-02-07T02:09:57;97123.53;;;-4.00;100.00
12624;BME280;6377;42.836;23.998;2023-02-07T02:15:34;97145.19;;;-4.04;100.00
12624;BME280;6377;42.836;23.998;2023-02-07T02:18:31;97113.00;;;-3.96;100.00
12624;BME280;6377;42.836;23.998;2023-02-07T02:21:29;97117.84;;;-3.86;100.00
12624;BME280;6377;42.836;23.998;2023-02-07T02:27:04;97116.16;;;-3.64;100.00
12624;BME280;6377;42.836;23.998;2023-02-07T02:33:22;97122.38;;;-3.47;100.00
12624;BME280;6377;42.836;23.998;2023-02-07T02:36:01;97100.31;;;-3.55;100.00
12624;BME280;6377;42.836;23.998;2023-02-07T02:38:40;97064.72;;;-3.72;100.00
12624;BME280;6377;42.836;23.998;2023-02-07T02:41:14;97102.34;;;-3.42;100.00
12624;BME280;6377;42.836;23.998;2023-02-07T02:43:45;97080.31;;;-3.52;100.00
12624;BME280;6377;42.836;23.998;2023-02-07T02:46:19;97081.13;;;-3.50;100.00
12624;BME280;6377;42.836;23.998;2023-02-07T02:48:49;97092.00;;;-3.42;100.00
12624;BME280;6377;42.836;23.998;2023-02-07T02:51:17;97087.47;;;-3.36;100.00
12624;BME280;6377;42.836;23.998;2023-02-07T02:53:54;97096.88;;;-3.34;100.00
12624;BME280;6377;42.836;23.998;2023-02-07T02:59:40;97132.84;;;-3.28;100.00
12624;BME280;6377;42.836;23.998;2023-02-07T03:02:25;97136.34;;;-3.29;100.00
12624;BME280;6377;42.836;23.998;2023-02-07T03:05:12;97131.22;;;-3.30;100.00
12624;BME280;6377;42.836;23.998;2023-02-07T03:07:54;97010.72;;;-4.01;100.00
12624;BME280;6377;42.836;23.998;2023-02-07T03:10:31;97128.63;;;-3.30;100.00
12624;BME280;6377;42.836;23.998;2023-02-07T03:13:06;97132.94;;;-3.29;100.00
12624;BME280;6377;42.836;23.998;2023-02-07T03:15:49;97110.16;;;-3.43;100.00
12624;BME280;6377;42.836;23.998;2023-02-07T03:18:21;97064.00;;;-3.75;100.00
12624;BME280;6377;42.836;23.998;2023-02-07T03:20:55;97092.53;;;-3.55;100.00
12624;BME280;6377;42.836;23.998;2023-02-07T03:23:23;97113.09;;;-3.52;100.00
12624;BME280;6377;42.836;23.998;2023-02-07T03:25:51;97159.44;;;-3.24;100.00
12624;BME280;6377;42.836;23.998;2023-02-07T03:28:24;97081.16;;;-3.51;100.00
12624;BME280;6377;42.836;23.998;2023-02-07T03:30:54;97110.53;;;-3.30;100.00
12624;BME280;6377;42.836;23.998;2023-02-07T03:33:26;97107.56;;;-3.43;100.00
12624;BME280;6377;42.836;23.998;2023-02-07T03:36:00;97131.22;;;-3.30;100.00
12624;BME280;6377;42.836;23.998;2023-02-07T03:38:29;97130.13;;;-3.47;100.00
12624;BME280;6377;42.836;23.998;2023-02-07T03:40:59;97118.16;;;-3.72;100.00
12624;BME280;6377;42.836;23.998;2023-02-07T03:43:29;97115.13;;;-3.83;100.00
12624;BME280;6377;42.836;23.998;2023-02-07T03:45:58;97098.91;;;-3.87;100.00
12624;BME280;6377;42.836;23.998;2023-02-07T03:48:28;97135.25;;;-3.68;100.00
12624;BME280;6377;42.836;23.998;2023-02-07T03:50:57;97106.44;;;-3.81;100.00
12624;BME280;6377;42.836;23.998;2023-02-07T03:53:24;97124.75;;;-3.87;100.00
12624;BME280;6377;42.836;23.998;2023-02-07T03:55:51;97049.69;;;-4.07;100.00
12624;BME280;6377;42.836;23.998;2023-02-07T03:58:19;97117.66;;;-3.59;100.00
12624;BME280;6377;42.836;23.998;2023-02-07T04:00:46;96997.03;;;-4.26;100.00
12624;BME280;6377;42.836;23.998;2023-02-07T04:03:13;97137.47;;;-3.36;100.00
12624;BME280;6377;42.836;23.998;2023-02-07T04:05:40;97065.06;;;-3.81;100.00
12624;BME280;6377;42.836;23.998;2023-02-07T04:08:09;97122.94;;;-3.38;100.00
12624;BME280;6377;42.836;23.998;2023-02-07T04:10:37;97108.28;;;-3.40;100.00
12624;BME280;6377;42.836;23.998;2023-02-07T04:13:05;97131.84;;;-3.24;100.00
12624;BME280;6377;42.836;23.998;2023-02-07T04:15:32;97094.47;;;-3.38;100.00
12624;BME280;6377;42.836;23.998;2023-02-07T04:18:01;97087.84;;;-3.46;100.00
12624;BME280;6377;42.836;23.998;2023-02-07T04:20:28;97125.34;;;-3.12;100.00
12624;BME280;6377;42.836;23.998;2023-02-07T04:22:55;97117.16;;;-3.23;100.00
12624;BME280;6377;42.836;23.998;2023-02-07T04:25:26;97110.09;;;-3.20;100.00
12624;BME280;6377;42.836;23.998;2023-02-07T04:27:55;97118.72;;;-3.19;100.00
12624;BME280;6377;42.836;23.998;2023-02-07T04:30:22;97096.09;;;-3.14;100.00
12624;BME280;6377;42.836;23.998;2023-02-07T04:32:52;97080.97;;;-3.25;100.00
12624;BME280;6377;42.836;23.998;2023-02-07T04:35:22;97052.72;;;-3.51;100.00
12624;BME280;6377;42.836;23.998;2023-02-07T04:37:50;97104.69;;;-3.14;100.00
12624;BME280;6377;42.836;23.998;2023-02-07T04:40:17;97108.81;;;-3.08;100.00
12624;BME280;6377;42.836;23.998;2023-02-07T04:42:46;97108.84;;;-3.10;100.00
12624;BME280;6377;42.836;23.998;2023-02-07T04:45:14;97141.13;;;-2.97;100.00
12624;BME280;6377;42.836;23.998;2023-02-07T04:47:41;97062.50;;;-3.38;100.00
12624;BME280;6377;42.836;23.998;2023-02-07T04:50:09;97132.22;;;-3.11;100.00
12624;BME280;6377;42.836;23.998;2023-02-07T04:52:36;97141.72;;;-3.12;100.00
12624;BME280;6377;42.836;23.998;2023-02-07T04:55:05;97153.03;;;-3.14;100.00
12624;BME280;6377;42.836;23.998;2023-02-07T04:57:33;97179.63;;;-3.11;100.00
12624;BME280;6377;42.836;23.998;2023-02-07T05:00:02;97161.38;;;-3.08;100.00
12624;BME280;6377;42.836;23.998;2023-02-07T05:02:29;97155.13;;;-3.02;100.00
12624;BME280;6377;42.836;23.998;2023-02-07T05:04:57;97165.53;;;-3.04;100.00
12624;BME280;6377;42.836;23.998;2023-02-07T05:07:24;97163.66;;;-3.22;100.00
12624;BME280;6377;42.836;23.998;2023-02-07T05:09:51;97163.75;;;-3.47;100.00
12624;BME280;6377;42.836;23.998;2023-02-07T05:12:18;97168.94;;;-3.47;100.00
12624;BME280;6377;42.836;23.998;2023-02-07T05:14:48;97016.28;;;-4.35;100.00
12624;BME280;6377;42.836;23.998;2023-02-07T05:17:20;97104.06;;;-3.87;100.00
12624;BME280;6377;42.836;23.998;2023-02-07T05:19:47;97166.91;;;-3.38;100.00
12624;BME280;6377;42.836;23.998;2023-02-07T05:22:14;97172.97;;;-3.40;100.00
12624;BME280;6377;42.836;23.998;2023-02-07T05:24:42;97163.16;;;-3.53;100.00
12624;BME280;6377;42.836;23.998;2023-02-07T05:27:12;97147.91;;;-3.61;100.00
12624;BME280;6377;42.836;23.998;2023-02-07T05:29:43;97070.25;;;-4.04;100.00
12624;BME280;6377;42.836;23.998;2023-02-07T05:32:18;97127.66;;;-3.96;100.00
12624;BME280;6377;42.836;23.998;2023-02-07T05:35:05;97063.94;;;-4.43;100.00
12624;BME280;6377;42.836;23.998;2023-02-07T05:37:32;97189.84;;;-3.76;100.00
12624;BME280;6377;42.836;23.998;2023-02-07T05:39:59;97182.31;;;-3.82;100.00
12624;BME280;6377;42.836;23.998;2023-02-07T05:42:26;97185.25;;;-3.68;100.00
12624;BME280;6377;42.836;23.998;2023-02-07T05:44:55;97193.94;;;-3.70;100.00
12624;BME280;6377;42.836;23.998;2023-02-07T05:47:22;97199.81;;;-3.67;100.00
12624;BME280;6377;42.836;23.998;2023-02-07T05:49:49;97181.72;;;-3.90;100.00
12624;BME280;6377;42.836;23.998;2023-02-07T05:52:18;97233.56;;;-3.94;100.00
12624;BME280;6377;42.836;23.998;2023-02-07T05:54:45;97200.38;;;-4.05;100.00
12624;BME280;6377;42.836;23.998;2023-02-07T05:57:12;97197.38;;;-4.19;100.00
12624;BME280;6377;42.836;23.998;2023-02-07T05:59:39;97181.28;;;-4.26;100.00
12624;BME280;6377;42.836;23.998;2023-02-07T06:02:07;97166.97;;;-4.36;100.00
12624;BME280;6377;42.836;23.998;2023-02-07T06:04:34;97207.19;;;-4.04;100.00
12624;BME280;6377;42.836;23.998;2023-02-07T06:07:01;97128.28;;;-4.62;100.00
12624;BME280;6377;42.836;23.998;2023-02-07T06:09:29;97212.16;;;-3.98;100.00
12624;BME280;6377;42.836;23.998;2023-02-07T06:11:57;97207.53;;;-3.88;100.00
12624;BME280;6377;42.836;23.998;2023-02-07T06:14:24;97212.31;;;-3.78;100.00
12624;BME280;6377;42.836;23.998;2023-02-07T06:16:51;97216.16;;;-3.65;100.00
12624;BME280;6377;42.836;23.998;2023-02-07T06:19:18;97193.88;;;-3.69;100.00
12624;BME280;6377;42.836;23.998;2023-02-07T06:21:45;97224.78;;;-3.41;100.00
12624;BME280;6377;42.836;23.998;2023-02-07T06:24:15;97217.97;;;-3.44;100.00
12624;BME280;6377;42.836;23.998;2023-02-07T06:26:44;97214.63;;;-3.24;100.00
12624;BME280;6377;42.836;23.998;2023-02-07T06:29:11;97222.16;;;-3.18;100.00
12624;BME280;6377;42.836;23.998;2023-02-07T06:31:40;97214.63;;;-3.24;100.00
12624;BME280;6377;42.836;23.998;2023-02-07T06:34:07;97216.50;;;-3.27;100.00
12624;BME280;6377;42.836;23.998;2023-02-07T06:36:34;97205.81;;;-3.42;100.00
12624;BME280;6377;42.836;23.998;2023-02-07T06:39:01;97220.59;;;-3.22;100.00
12624;BME280;6377;42.836;23.998;2023-02-07T06:41:28;97222.91;;;-3.14;100.00
12624;BME280;6377;42.836;23.998;2023-02-07T06:43:59;97228.44;;;-3.02;100.00
12624;BME280;6377;42.836;23.998;2023-02-07T06:46:27;97196.28;;;-3.18;100.00
12624;BME280;6377;42.836;23.998;2023-02-07T06:48:54;97232.06;;;-2.84;100.00
12624;BME280;6377;42.836;23.998;2023-02-07T06:51:21;97236.84;;;-2.73;100.00
12624;BME280;6377;42.836;23.998;2023-02-07T06:53:48;97222.00;;;-2.70;100.00
12624;BME280;6377;42.836;23.998;2023-02-07T06:56:15;97233.59;;;-2.57;100.00
12624;BME280;6377;42.836;23.998;2023-02-07T06:58:42;97213.44;;;-2.70;100.00
12624;BME280;6377;42.836;23.998;2023-02-07T07:01:11;97238.41;;;-2.48;100.00
12624;BME280;6377;42.836;23.998;2023-02-07T07:03:44;97246.91;;;-2.44;100.00
12624;BME280;6377;42.836;23.998;2023-02-07T07:06:12;97219.25;;;-2.44;100.00
12624;BME280;6377;42.836;23.998;2023-02-07T07:08:39;97235.00;;;-2.28;100.00
12624;BME280;6377;42.836;23.998;2023-02-07T07:11:06;97230.47;;;-2.23;100.00
12624;BME280;6377;42.836;23.998;2023-02-07T07:13:33;97204.22;;;-2.36;100.00
12624;BME280;6377;42.836;23.998;2023-02-07T07:16:00;97226.84;;;-2.61;100.00
12624;BME280;6377;42.836;23.998;2023-02-07T07:18:29;97135.94;;;-3.18;100.00
12624;BME280;6377;42.836;23.998;2023-02-07T07:20:59;97181.97;;;-3.05;100.00
12624;BME280;6377;42.836;23.998;2023-02-07T07:23:26;97235.63;;;-2.87;100.00
12624;BME280;6377;42.836;23.998;2023-02-07T07:25:54;97226.66;;;-3.00;100.00
12624;BME280;6377;42.836;23.998;2023-02-07T07:28:21;97241.66;;;-2.86;100.00
12624;BME280;6377;42.836;23.998;2023-02-07T07:30:48;97252.34;;;-2.95;100.00
12624;BME280;6377;42.836;23.998;2023-02-07T07:33:16;97094.13;;;-3.74;100.00
12624;BME280;6377;42.836;23.998;2023-02-07T07:35:44;97229.66;;;-2.89;100.00
12624;BME280;6377;42.836;23.998;2023-02-07T07:38:11;97255.88;;;-2.74;100.00
12624;BME280;6377;42.836;23.998;2023-02-07T07:40:38;97043.53;;;-3.81;100.00
12624;BME280;6377;42.836;23.998;2023-02-07T07:43:06;97126.75;;;-3.49;100.00
12624;BME280;6377;42.836;23.998;2023-02-07T07:45:33;97228.47;;;-2.80;100.00
12624;BME280;6377;42.836;23.998;2023-02-07T07:48:03;97225.22;;;-2.63;100.00
12624;BME280;6377;42.836;23.998;2023-02-07T07:50:33;97083.25;;;-3.61;100.00
12624;BME280;6377;42.836;23.998;2023-02-07T07:53:02;97204.69;;;-2.68;100.00
12624;BME280;6377;42.836;23.998;2023-02-07T07:55:29;97153.63;;;-3.08;100.00
12624;BME280;6377;42.836;23.998;2023-02-07T07:57:59;97227.69;;;-2.82;100.00
12624;BME280;6377;42.836;23.998;2023-02-07T08:00:26;97134.91;;;-3.59;100.00
12624;BME280;6377;42.836;23.998;2023-02-07T08:02:53;97102.50;;;-3.68;100.00
12624;BME280;6377;42.836;23.998;2023-02-07T08:05:20;97230.22;;;-2.80;100.00
12624;BME280;6377;42.836;23.998;2023-02-07T08:07:47;97222.22;;;-2.74;100.00
12624;BME280;6377;42.836;23.998;2023-02-07T08:10:17;97223.28;;;-2.80;100.00
12624;BME280;6377;42.836;23.998;2023-02-07T08:12:48;97155.50;;;-3.34;100.00
12624;BME280;6377;42.836;23.998;2023-02-07T08:15:21;97213.38;;;-2.91;100.00
12624;BME280;6377;42.836;23.998;2023-02-07T08:17:50;97224.41;;;-2.87;100.00
12624;BME280;6377;42.836;23.998;2023-02-07T08:20:17;97224.91;;;-2.77;100.00
12624;BME280;6377;42.836;23.998;2023-02-07T08:22:44;97226.03;;;-2.85;100.00
12624;BME280;6377;42.836;23.998;2023-02-07T08:25:12;97224.88;;;-2.76;100.00
12624;BME280;6377;42.836;23.998;2023-02-07T08:27:43;97233.28;;;-2.71;100.00
12624;BME280;6377;42.836;23.998;2023-02-07T08:30:15;97228.22;;;-2.52;100.00
12624;BME280;6377;42.836;23.998;2023-02-07T08:32:43;97218.22;;;-2.19;100.00
12624;BME280;6377;42.836;23.998;2023-02-07T08:35:10;97174.28;;;-2.22;100.00
12624;BME280;6377;42.836;23.998;2023-02-07T08:37:38;97206.13;;;-2.19;100.00
12624;BME280;6377;42.836;23.998;2023-02-07T08:40:08;97220.53;;;-2.12;100.00
12624;BME280;6377;42.836;23.998;2023-02-07T08:42:35;97176.09;;;-2.45;100.00
12624;BME280;6377;42.836;23.998;2023-02-07T08:45:04;97218.56;;;-1.87;100.00
12624;BME280;6377;42.836;23.998;2023-02-07T08:47:31;97224.97;;;-1.75;100.00
12624;BME280;6377;42.836;23.998;2023-02-07T08:49:59;97127.97;;;-2.30;100.00
12624;BME280;6377;42.836;23.998;2023-02-07T08:52:28;97232.09;;;-1.60;100.00
12624;BME280;6377;42.836;23.998;2023-02-07T08:54:56;97188.19;;;-2.03;100.00
12624;BME280;6377;42.836;23.998;2023-02-07T08:57:23;97228.56;;;-1.98;100.00
12624;BME280;6377;42.836;23.998;2023-02-07T08:59:50;97223.69;;;-2.05;100.00
12624;BME280;6377;42.836;23.998;2023-02-07T09:02:19;97213.59;;;-2.11;100.00
12624;BME280;6377;42.836;23.998;2023-02-07T09:04:47;97231.47;;;-1.85;100.00
12624;BME280;6377;42.836;23.998;2023-02-07T09:07:14;97229.41;;;-1.77;100.00
12624;BME280;6377;42.836;23.998;2023-02-07T09:09:41;97222.88;;;-1.67;100.00
12624;BME280;6377;42.836;23.998;2023-02-07T09:12:08;97114.19;;;-2.31;100.00
12624;BME280;6377;42.836;23.998;2023-02-07T09:14:36;97228.13;;;-1.48;100.00
12624;BME280;6377;42.836;23.998;2023-02-07T09:17:04;97177.72;;;-1.82;100.00
12624;BME280;6377;42.836;23.998;2023-02-07T09:19:34;97171.72;;;-1.82;100.00
12624;BME280;6377;42.836;23.998;2023-02-07T09:22:01;97232.81;;;-1.56;100.00
12624;BME280;6377;42.836;23.998;2023-02-07T09:24:28;97234.94;;;-1.46;100.00
12624;BME280;6377;42.836;23.998;2023-02-07T09:26:55;97232.91;;;-1.39;100.00
12624;BME280;6377;42.836;23.998;2023-02-07T09:29:23;97221.31;;;-1.51;100.00
12624;BME280;6377;42.836;23.998;2023-02-07T09:31:50;97181.06;;;-1.59;100.00
12624;BME280;6377;42.836;23.998;2023-02-07T09:34:17;97222.03;;;-1.47;100.00
12624;BME280;6377;42.836;23.998;2023-02-07T09:36:45;97228.38;;;-1.16;100.00
12624;BME280;6377;42.836;23.998;2023-02-07T09:39:14;97230.75;;;-1.11;100.00
12624;BME280;6377;42.836;23.998;2023-02-07T09:41:50;97212.66;;;-0.94;100.00
12624;BME280;6377;42.836;23.998;2023-02-07T09:44:23;97221.44;;;-0.78;100.00
12624;BME280;6377;42.836;23.998;2023-02-07T09:46:58;97211.31;;;-0.65;100.00
12624;BME280;6377;42.836;23.998;2023-02-07T09:49:29;97184.00;;;-0.74;100.00
12624;BME280;6377;42.836;23.998;2023-02-07T09:52:16;97178.06;;;-1.13;100.00
12624;BME280;6377;42.836;23.998;2023-02-07T09:54:49;97200.78;;;-0.99;100.00
12624;BME280;6377;42.836;23.998;2023-02-07T09:57:20;97113.81;;;-1.45;100.00
12624;BME280;6377;42.836;23.998;2023-02-07T09:59:52;97200.81;;;-1.18;100.00
12624;BME280;6377;42.836;23.998;2023-02-07T10:02:23;97209.00;;;-1.27;100.00
12624;BME280;6377;42.836;23.998;2023-02-07T10:04:59;97200.94;;;-1.40;100.00
12624;BME280;6377;42.836;23.998;2023-02-07T10:07:32;97204.28;;;-1.38;100.00
12624;BME280;6377;42.836;23.998;2023-02-07T10:10:13;97175.47;;;-1.32;100.00
12624;BME280;6377;42.836;23.998;2023-02-07T10:12:58;97033.47;;;-2.03;100.00
12624;BME280;6377;42.836;23.998;2023-02-07T10:15:40;97184.25;;;-0.61;100.00
12624;BME280;6377;42.836;23.998;2023-02-07T10:18:30;97186.09;;;-0.46;100.00
12624;BME280;6377;42.836;23.998;2023-02-07T10:21:09;97068.72;;;-1.43;100.00
12624;BME280;6377;42.836;23.998;2023-02-07T10:23:49;97183.81;;;-1.25;100.00
12624;BME280;6377;42.836;23.998;2023-02-07T10:26:26;97176.75;;;-1.22;100.00
12624;BME280;6377;42.836;23.998;2023-02-07T10:29:18;97189.03;;;-1.06;100.00
12624;BME280;6377;42.836;23.998;2023-02-07T10:31:51;97155.84;;;-1.19;100.00
12624;BME280;6377;42.836;23.998;2023-02-07T10:34:21;97167.69;;;-0.94;100.00
12624;BME280;6377;42.836;23.998;2023-02-07T10:36:51;97159.97;;;-0.79;100.00
12624;BME280;6377;42.836;23.998;2023-02-07T10:39:24;97170.16;;;-0.74;100.00
12624;BME280;6377;42.836;23.998;2023-02-07T10:41:55;97113.13;;;-1.30;100.00
12624;BME280;6377;42.836;23.998;2023-02-07T10:44:23;97171.97;;;-1.31;100.00
12624;BME280;6377;42.836;23.998;2023-02-07T10:46:54;97121.50;;;-1.81;100.00
12624;BME280;6377;42.836;23.998;2023-02-07T10:49:26;97161.97;;;-1.77;100.00
12624;BME280;6377;42.836;23.998;2023-02-07T10:51:56;97104.78;;;-2.13;100.00
12624;BME280;6377;42.836;23.998;2023-02-07T10:54:25;97152.25;;;-1.53;100.00
12624;BME280;6377;42.836;23.998;2023-02-07T10:56:55;97109.25;;;-1.78;100.00
12624;BME280;6377;42.836;23.998;2023-02-07T10:59:31;97135.00;;;-1.54;100.00
12624;BME280;6377;42.836;23.998;2023-02-07T11:02:00;97135.03;;;-1.75;100.00
12624;BME280;6377;42.836;23.998;2023-02-07T11:04:35;97126.78;;;-1.83;100.00
12624;BME280;6377;42.836;23.998;2023-02-07T11:07:04;97105.41;;;-2.08;100.00
12624;BME280;6377;42.836;23.998;2023-02-07T11:09:34;97129.81;;;-1.93;100.00
12624;BME280;6377;42.836;23.998;2023-02-07T11:12:13;97090.88;;;-1.92;100.00
12624;BME280;6377;42.836;23.998;2023-02-07T11:14:58;97149.38;;;-1.10;100.00
12624;BME280;6377;42.836;23.998;2023-02-07T11:17:26;97139.00;;;-0.57;97.48
12624;BME280;6377;42.836;23.998;2023-02-07T11:19:54;97146.78;;;-0.06;96.16
12624;BME280;6377;42.836;23.998;2023-02-07T11:22:22;97158.28;;;0.40;94.50
12624;BME280;6377;42.836;23.998;2023-02-07T11:25:00;97117.06;;;1.27;90.17
12624;BME280;6377;42.836;23.998;2023-02-07T11:27:27;97133.78;;;2.12;76.05
12624;BME280;6377;42.836;23.998;2023-02-07T11:29:57;97122.06;;;2.19;77.88
12624;BME280;6377;42.836;23.998;2023-02-07T11:32:27;97112.97;;;1.82;77.24
12624;BME280;6377;42.836;23.998;2023-02-07T11:34:56;96960.59;;;0.23;73.52
12624;BME280;6377;42.836;23.998;2023-02-07T11:37:26;97110.97;;;0.81;78.01
12624;BME280;6377;42.836;23.998;2023-02-07T11:40:14;96999.09;;;-0.32;81.47
12624;BME280;6377;42.836;23.998;2023-02-07T11:42:43;97044.81;;;-0.28;84.17
12624;BME280;6377;42.836;23.998;2023-02-07T11:45:13;97162.91;;;0.18;82.95
12624;BME280;6377;42.836;23.998;2023-02-07T11:47:43;97023.53;;;-0.51;81.78
12624;BME280;6377;42.836;23.998;2023-02-07T11:50:19;96991.75;;;-1.08;84.20
12624;BME280;6377;42.836;23.998;2023-02-07T11:52:50;97129.00;;;-0.30;87.77
12624;BME280;6377;42.836;23.998;2023-02-07T11:55:24;96947.50;;;-1.58;87.62
12624;BME280;6377;42.836;23.998;2023-02-07T11:57:54;97154.63;;;-0.76;90.25
12624;BME280;6377;42.836;23.998;2023-02-07T12:00:23;96989.56;;;-1.51;90.58
12624;BME280;6377;42.836;23.998;2023-02-07T12:02:59;97118.56;;;-0.82;90.87
12624;BME280;6377;42.836;23.998;2023-02-07T12:05:29;97048.09;;;-1.27;90.31
12624;BME280;6377;42.836;23.998;2023-02-07T12:08:00;97129.00;;;-0.47;89.09
12624;BME280;6377;42.836;23.998;2023-02-07T12:10:33;97097.03;;;0.18;85.69
12624;BME280;6377;42.836;23.998;2023-02-07T12:13:03;97018.38;;;0.13;79.96
12624;BME280;6377;42.836;23.998;2023-02-07T12:15:36;97125.94;;;1.08;76.00
12624;BME280;6377;42.836;23.998;2023-02-07T12:18:10;97024.00;;;0.99;75.51
12624;BME280;6377;42.836;23.998;2023-02-07T12:20:46;96998.69;;;0.24;71.42
12624;BME280;6377;42.836;23.998;2023-02-07T12:23:21;97069.41;;;0.64;69.44
12624;BME280;6377;42.836;23.998;2023-02-07T12:25:54;97085.09;;;0.62;68.91
12624;BME280;6377;42.836;23.998;2023-02-07T12:28:27;96988.56;;;-0.13;72.14
12624;BME280;6377;42.836;23.998;2023-02-07T12:31:04;97011.09;;;0.19;70.95
12624;BME280;6377;42.836;23.998;2023-02-07T12:33:41;97080.44;;;0.20;73.52
12624;BME280;6377;42.836;23.998;2023-02-07T12:36:22;97012.09;;;-0.32;77.51
12624;BME280;6377;42.836;23.998;2023-02-07T12:41:33;97090.25;;;-0.18;83.57
12624;BME280;6377;42.836;23.998;2023-02-07T12:44:11;97143.28;;;-0.05;82.24
12624;BME280;6377;42.836;23.998;2023-02-07T12:46:45;97022.47;;;-0.47;81.21
12624;BME280;6377;42.836;23.998;2023-02-07T12:54:56;96959.44;;;-1.02;81.22
12624;BME280;6377;42.836;23.998;2023-02-07T12:57:35;97075.72;;;-0.39;77.87
12624;BME280;6377;42.836;23.998;2023-02-07T13:00:17;97016.13;;;-0.76;82.97
12624;BME280;6377;42.836;23.998;2023-02-07T13:02:57;97044.38;;;-0.87;81.29
12624;BME280;6377;42.836;23.998;2023-02-07T13:05:43;97082.00;;;-0.77;85.37
12624;BME280;6377;42.836;23.998;2023-02-07T13:08:23;96984.03;;;-1.27;84.85
12624;BME280;6377;42.836;23.998;2023-02-07T13:11:01;96964.03;;;-1.42;83.40
12624;BME280;6377;42.836;23.998;2023-02-07T13:13:42;97127.16;;;-0.63;84.74
12624;BME280;6377;42.836;23.998;2023-02-07T13:16:18;97100.72;;;-0.71;82.36
12624;BME280;6377;42.836;23.998;2023-02-07T13:18:52;97091.38;;;-0.75;86.21
12624;BME280;6377;42.836;23.998;2023-02-07T13:21:28;97070.22;;;-0.67;80.36
12624;BME280;6377;42.836;23.998;2023-02-07T13:24:02;97102.41;;;-0.35;80.22
12624;BME280;6377;42.836;23.998;2023-02-07T13:26:34;97054.16;;;-0.58;79.09
12624;BME280;6377;42.836;23.998;2023-02-07T13:29:04;97056.22;;;-0.30;75.56
12624;BME280;6377;42.836;23.998;2023-02-07T13:31:39;97076.25;;;0.00;77.52